createdAt,value
2022-12-09T00:01:52.924Z,63.35
2022-12-09T00:04:21.234Z,62.42
2022-12-09T00:06:49.121Z,58.25
2022-12-09T00:09:17.543Z,59.35
2022-12-09T00:11:45.412Z,54.20
2022-12-09T00:14:13.536Z,63.38
2022-12-09T00:16:41.588Z,57.65
2022-12-09T00:19:09.756Z,56.67
2022-12-09T00:21:37.653Z,57.75
2022-12-09T00:24:08.033Z,54.67
2022-12-09T00:26:35.862Z,53.65
2022-12-09T00:29:04.315Z,59.40
2022-12-09T00:31:34.874Z,61.38
2022-12-09T00:34:06.781Z,58.78
2022-12-09T00:36:35.243Z,58.33
2022-12-09T00:39:03.557Z,60.13
2022-12-09T00:41:31.523Z,59.70
2022-12-09T00:43:59.989Z,58.35
2022-12-09T00:46:27.776Z,59.75
2022-12-09T00:48:56.732Z,61.95
2022-12-09T00:51:25.707Z,63.60
2022-12-09T00:53:56.231Z,56.75
2022-12-09T00:56:26.640Z,61.80
2022-12-09T00:58:55.449Z,60.10
2022-12-09T01:01:23.929Z,61.53
2022-12-09T01:03:52.762Z,66.00
2022-12-09T01:06:23.786Z,63.17
2022-12-09T01:08:52.285Z,61.63
2022-12-09T01:11:24.566Z,65.10
2022-12-09T01:13:53.586Z,62.40
2022-12-09T01:16:25.196Z,61.90
2022-12-09T01:18:55.710Z,60.60
2022-12-09T01:21:25.015Z,65.85
2022-12-09T01:23:53.606Z,69.72
2022-12-09T01:26:23.181Z,63.78
2022-12-09T01:28:53.391Z,66.80
2022-12-09T01:31:23.502Z,57.10
2022-12-09T01:33:52.070Z,64.50
2022-12-09T01:36:22.731Z,63.33
2022-12-09T01:38:51.379Z,68.70
2022-12-09T01:41:21.241Z,62.88
2022-12-09T01:44:09.325Z,58.55
2022-12-09T01:46:37.059Z,63.60
2022-12-09T01:49:08.847Z,62.00
2022-12-09T01:51:38.008Z,55.50
2022-12-09T01:54:07.453Z,64.28
2022-12-09T01:56:36.601Z,58.33
2022-12-09T01:59:11.318Z,64.22
2022-12-09T02:01:40.420Z,59.70
2022-12-09T02:04:09.026Z,65.00
2022-12-09T02:06:39.246Z,58.55
2022-12-09T02:12:14.071Z,59.20
2022-12-09T02:14:42.160Z,57.70
2022-12-09T02:17:50.757Z,60.38
2022-12-09T02:20:26.536Z,59.97
2022-12-09T02:23:10.490Z,61.60
2022-12-09T02:26:11.966Z,63.35
2022-12-09T02:29:17.123Z,69.03
2022-12-09T02:32:11.530Z,61.28
2022-12-09T02:34:56.049Z,62.00
2022-12-09T02:37:59.117Z,68.10
2022-12-09T02:40:45.550Z,62.00
2022-12-09T02:43:15.260Z,73.10
2022-12-09T02:45:44.659Z,64.05
2022-12-09T02:48:14.550Z,61.53
2022-12-09T02:50:44.540Z,63.25
2022-12-09T02:53:14.279Z,68.65
2022-12-09T02:55:44.596Z,68.68
2022-12-09T02:58:13.495Z,62.92
2022-12-09T03:00:42.357Z,63.90
2022-12-09T03:03:15.820Z,64.68
2022-12-09T03:08:23.711Z,73.60
2022-12-09T03:11:36.050Z,68.18
2022-12-09T03:14:25.371Z,69.20
2022-12-09T03:17:13.840Z,67.22
2022-12-09T03:19:48.387Z,67.80
2022-12-09T03:22:19.101Z,73.13
2022-12-09T03:25:07.736Z,67.93
2022-12-09T03:27:42.335Z,64.70
2022-12-09T03:30:12.320Z,63.28
2022-12-09T03:32:41.879Z,70.53
2022-12-09T03:35:18.159Z,62.47
2022-12-09T03:37:47.060Z,67.93
2022-12-09T03:40:18.791Z,61.10
2022-12-09T03:42:51.978Z,61.85
2022-12-09T03:45:21.921Z,65.57
2022-12-09T03:47:49.997Z,64.03
2022-12-09T03:50:19.304Z,62.22
2022-12-09T03:52:53.961Z,64.85
2022-12-09T03:55:26.979Z,63.10
2022-12-09T03:57:58.288Z,73.25
2022-12-09T04:00:26.997Z,56.67
2022-12-09T04:02:55.364Z,65.82
2022-12-09T04:05:24.037Z,60.78
2022-12-09T04:07:51.886Z,55.40
2022-12-09T04:10:20.307Z,70.22
2022-12-09T04:12:48.375Z,61.78
2022-12-09T04:15:16.908Z,61.63
2022-12-09T04:17:44.800Z,65.18
2022-12-09T04:20:13.958Z,58.60
2022-12-09T04:22:43.483Z,67.25
2022-12-09T04:25:11.689Z,71.00
2022-12-09T04:27:39.525Z,68.80
2022-12-09T04:30:08.887Z,65.90
2022-12-09T04:32:38.743Z,60.33
2022-12-09T04:35:07.352Z,63.80
2022-12-09T04:37:34.986Z,71.63
2022-12-09T04:40:08.064Z,71.40
2022-12-09T04:42:36.050Z,67.22
2022-12-09T04:45:05.076Z,68.43
2022-12-09T04:47:34.586Z,72.57
2022-12-09T04:50:03.702Z,70.18
2022-12-09T04:52:31.815Z,74.35
2022-12-09T04:54:59.978Z,66.20
2022-12-09T04:57:27.843Z,63.63
2022-12-09T04:59:56.317Z,64.13
2022-12-09T05:02:24.653Z,67.95
2022-12-09T05:04:53.167Z,64.18
2022-12-09T05:07:21.708Z,70.25
2022-12-09T05:09:50.176Z,69.15
2022-12-09T05:12:17.979Z,67.68
2022-12-09T05:14:46.435Z,77.90
2022-12-09T05:17:14.484Z,65.25
2022-12-09T05:19:43.193Z,66.97
2022-12-09T05:22:11.167Z,63.28
2022-12-09T05:24:39.432Z,69.45
2022-12-09T05:27:07.580Z,69.10
2022-12-09T05:29:35.755Z,62.65
2022-12-09T05:35:11.565Z,72.40
2022-12-09T05:37:39.660Z,72.00
2022-12-09T05:40:09.153Z,70.57
2022-12-09T05:42:41.328Z,67.22
2022-12-09T05:47:39.624Z,61.75
2022-12-09T05:50:09.805Z,68.10
2022-12-09T05:52:38.437Z,69.38
2022-12-09T05:55:08.040Z,69.25
2022-12-09T05:57:36.549Z,69.13
2022-12-09T06:00:08.774Z,74.60
2022-12-09T06:02:40.246Z,66.03
2022-12-09T06:05:10.168Z,78.32
2022-12-09T06:07:38.528Z,63.58
2022-12-09T06:10:08.521Z,75.85
2022-12-09T06:12:37.005Z,76.93
2022-12-09T06:15:09.119Z,76.72
2022-12-09T06:17:38.257Z,71.97
2022-12-09T06:20:08.181Z,79.35
2022-12-09T06:22:36.414Z,79.05
2022-12-09T06:25:05.872Z,81.65
2022-12-09T06:27:33.892Z,85.75
2022-12-09T06:30:03.498Z,86.80
2022-12-09T06:32:31.664Z,92.30
2022-12-09T06:35:01.242Z,86.93
2022-12-09T06:37:29.266Z,85.30
2022-12-09T06:39:58.352Z,86.43
2022-12-09T06:42:27.093Z,91.40
2022-12-09T06:44:55.757Z,77.32
2022-12-09T06:47:23.652Z,76.05
2022-12-09T06:49:52.360Z,79.18
2022-12-09T06:52:20.295Z,97.78
2022-12-09T06:54:49.382Z,90.50
2022-12-09T06:57:17.303Z,89.45
2022-12-09T06:59:46.889Z,87.45
2022-12-09T07:02:15.124Z,94.32
2022-12-09T07:04:44.356Z,93.57
2022-12-09T07:07:12.907Z,102.82
2022-12-09T07:09:41.383Z,90.93
2022-12-09T07:12:09.292Z,86.63
2022-12-09T07:14:38.130Z,97.53
2022-12-09T07:17:06.970Z,89.90
2022-12-09T07:19:35.445Z,86.38
2022-12-09T07:22:03.703Z,82.10
2022-12-09T07:24:32.311Z,91.00
2022-12-09T07:27:06.226Z,95.45
2022-12-09T07:29:37.337Z,83.55
2022-12-09T07:32:05.596Z,89.78
2022-12-09T07:34:34.141Z,95.18
2022-12-09T07:37:03.196Z,83.78
2022-12-09T07:39:32.294Z,83.22
2022-12-09T07:42:00.347Z,79.97
2022-12-09T07:44:32.402Z,73.30
2022-12-09T07:47:00.437Z,73.50
2022-12-09T07:49:29.021Z,77.10
2022-12-09T07:51:57.450Z,72.22
2022-12-09T07:54:25.904Z,83.22
2022-12-09T07:56:54.747Z,73.50
2022-12-09T07:59:23.575Z,72.80
2022-12-09T08:01:51.601Z,71.38
2022-12-09T08:04:19.965Z,69.60
2022-12-09T08:06:48.270Z,68.72
2022-12-09T08:09:17.607Z,67.43
2022-12-09T08:11:46.244Z,73.22
2022-12-09T08:14:15.614Z,70.63
2022-12-09T08:16:44.149Z,76.65
2022-12-09T08:19:13.600Z,71.88
2022-12-09T08:21:42.412Z,78.90
2022-12-09T08:24:12.835Z,78.60
2022-12-09T08:26:41.302Z,70.80
2022-12-09T08:29:11.992Z,71.45
2022-12-09T08:31:42.453Z,73.13
2022-12-09T08:34:11.129Z,72.47
2022-12-09T08:36:39.402Z,76.07
2022-12-09T08:39:08.521Z,72.30
2022-12-09T08:41:38.484Z,70.38
2022-12-09T08:44:16.443Z,65.57
2022-12-09T08:46:48.301Z,74.22
2022-12-09T08:49:19.346Z,73.03
2022-12-09T08:51:48.550Z,71.88
2022-12-09T08:54:17.364Z,67.32
2022-12-09T08:56:50.723Z,69.15
2022-12-09T08:59:19.490Z,71.45
2022-12-09T09:01:48.466Z,67.63
2022-12-09T09:04:19.550Z,65.15
2022-12-09T09:06:50.564Z,74.47
2022-12-09T09:09:21.272Z,75.93
2022-12-09T09:11:51.842Z,80.35
2022-12-09T09:14:21.910Z,77.05
2022-12-09T09:17:00.304Z,75.63
2022-12-09T09:19:30.366Z,72.75
2022-12-09T09:21:59.252Z,75.40
2022-12-09T09:24:27.716Z,76.68
2022-12-09T09:26:56.826Z,76.78
2022-12-09T09:29:25.536Z,73.47
2022-12-09T09:31:57.475Z,67.38
2022-12-09T09:34:26.999Z,71.10
2022-12-09T09:36:56.565Z,68.15
2022-12-09T09:39:25.625Z,72.82
2022-12-09T09:41:56.543Z,72.07
2022-12-09T09:44:31.139Z,73.97
2022-12-09T09:47:01.406Z,76.00
2022-12-09T09:50:02.525Z,69.93
2022-12-09T09:52:31.746Z,71.03
2022-12-09T09:55:00.772Z,70.72
2022-12-09T09:57:47.223Z,73.20
2022-12-09T10:00:30.844Z,72.63
2022-12-09T10:03:10.734Z,69.38
2022-12-09T10:06:00.777Z,70.38
2022-12-09T10:08:49.555Z,68.07
2022-12-09T10:11:29.869Z,72.55
2022-12-09T10:14:01.785Z,77.32
2022-12-09T10:19:19.773Z,68.68
2022-12-09T10:21:49.594Z,72.38
2022-12-09T10:24:39.266Z,76.60
2022-12-09T10:27:28.450Z,72.25
2022-12-09T10:29:56.787Z,78.30
2022-12-09T10:32:28.666Z,78.18
2022-12-09T10:34:56.476Z,81.40
2022-12-09T10:37:33.900Z,69.50
2022-12-09T10:40:13.319Z,71.13
2022-12-09T10:43:14.639Z,72.68
2022-12-09T10:48:42.158Z,73.43
2022-12-09T10:51:29.965Z,74.50
2022-12-09T10:54:26.443Z,74.63
2022-12-09T10:57:02.138Z,73.63
2022-12-09T10:59:31.426Z,72.10
2022-12-09T11:02:11.962Z,79.53
2022-12-09T11:04:42.873Z,75.28
2022-12-09T11:07:10.992Z,74.18
2022-12-09T11:09:44.881Z,66.40
2022-12-09T11:12:34.814Z,68.07
2022-12-09T11:15:24.160Z,66.30
2022-12-09T11:18:20.257Z,63.95
2022-12-09T11:21:08.815Z,69.28
2022-12-09T11:23:37.711Z,66.85
2022-12-09T11:26:13.008Z,72.30
2022-12-09T11:28:42.697Z,72.05
2022-12-09T11:31:29.444Z,74.22
2022-12-09T11:34:07.334Z,67.15
2022-12-09T11:36:44.364Z,64.47
2022-12-09T11:39:23.208Z,70.85
2022-12-09T11:42:17.521Z,67.30
2022-12-09T11:45:11.786Z,70.68
2022-12-09T11:48:25.819Z,68.40
2022-12-09T11:50:33.670Z,68.95
2022-12-09T11:53:18.847Z,74.93
2022-12-09T11:56:10.673Z,67.55
2022-12-09T11:58:44.259Z,64.53
2022-12-09T12:01:16.537Z,70.68
2022-12-09T12:03:55.723Z,66.85
2022-12-09T12:06:25.757Z,70.47
2022-12-09T12:09:25.176Z,69.32
2022-12-09T12:12:19.965Z,78.22
2022-12-09T12:14:48.203Z,67.63
2022-12-09T12:17:32.393Z,67.60
2022-12-09T12:20:00.137Z,62.85
2022-12-09T12:22:58.543Z,65.40
2022-12-09T12:26:03.738Z,58.85
2022-12-09T12:28:58.985Z,64.32
2022-12-09T12:31:44.266Z,62.38
2022-12-09T12:34:27.981Z,51.92
2022-12-09T12:37:20.884Z,62.13
2022-12-09T12:40:00.335Z,58.40
2022-12-09T12:43:08.500Z,63.20
2022-12-09T12:46:22.114Z,57.67
2022-12-09T12:49:27.798Z,63.88
2022-12-09T12:52:54.781Z,65.50
2022-12-09T12:55:51.693Z,62.70
2022-12-09T12:58:50.149Z,65.57
2022-12-09T13:01:39.224Z,64.63
2022-12-09T13:04:24.733Z,60.90
2022-12-09T13:06:58.130Z,59.35
2022-12-09T13:12:08.813Z,63.10
2022-12-09T13:14:52.188Z,59.35
2022-12-09T13:17:23.809Z,70.95
2022-12-09T13:19:53.486Z,69.90
2022-12-09T13:22:24.922Z,62.20
2022-12-09T13:25:01.094Z,62.42
2022-12-09T13:27:52.943Z,69.25
2022-12-09T13:30:23.124Z,58.38
2022-12-09T13:33:06.021Z,66.85
2022-12-09T13:35:41.622Z,67.28
2022-12-09T13:38:33.870Z,67.07
2022-12-09T13:41:01.236Z,67.45
2022-12-09T13:43:30.719Z,64.10
2022-12-09T13:46:00.363Z,66.82
2022-12-09T13:48:47.633Z,70.30
2022-12-09T13:51:16.048Z,70.70
2022-12-09T13:53:48.221Z,77.65
2022-12-09T13:56:26.368Z,76.80
2022-12-09T13:59:17.009Z,66.88
2022-12-09T14:01:50.268Z,68.15
2022-12-09T14:04:27.933Z,74.43
2022-12-09T14:07:19.850Z,65.93
2022-12-09T14:09:54.540Z,79.13
2022-12-09T14:12:28.671Z,75.07
2022-12-09T14:15:23.402Z,73.72
2022-12-09T14:17:51.049Z,75.13
2022-12-09T14:20:24.719Z,70.32
2022-12-09T14:23:07.040Z,77.45
2022-12-09T14:25:34.690Z,78.47
2022-12-09T14:28:14.313Z,73.82
2022-12-09T14:31:08.115Z,83.70
2022-12-09T14:33:46.718Z,79.25
2022-12-09T14:36:14.336Z,80.03
2022-12-09T14:39:24.998Z,73.75
2022-12-09T14:42:03.499Z,72.05
2022-12-09T14:45:01.655Z,75.97
2022-12-09T14:47:31.722Z,79.80
2022-12-09T14:50:25.671Z,83.47
2022-12-09T14:53:04.582Z,78.32
2022-12-09T14:55:36.468Z,81.22
2022-12-09T14:58:04.958Z,89.85
2022-12-09T15:00:36.520Z,101.03
2022-12-09T15:03:32.188Z,103.22
2022-12-09T15:06:12.684Z,111.32
2022-12-09T15:08:42.151Z,109.15
2022-12-09T15:11:14.030Z,111.40
2022-12-09T15:13:44.885Z,112.97
2022-12-09T15:16:14.195Z,156.73
2022-12-09T15:18:43.278Z,174.73
2022-12-09T15:21:11.182Z,103.30
2022-12-09T15:23:41.162Z,120.90
2022-12-09T15:26:26.605Z,117.07
2022-12-09T15:28:59.691Z,107.82
2022-12-09T15:31:29.669Z,108.13
2022-12-09T15:33:59.830Z,121.35
2022-12-09T15:36:39.003Z,112.28
2022-12-09T15:39:52.507Z,133.02
2022-12-09T15:42:26.074Z,127.32
2022-12-09T15:45:17.470Z,133.25
2022-12-09T15:48:12.326Z,141.63
2022-12-09T15:50:51.545Z,120.40
2022-12-09T15:53:42.304Z,143.52
2022-12-09T15:56:22.629Z,151.73
2022-12-09T15:58:51.892Z,138.43
2022-12-09T16:01:25.376Z,147.07
2022-12-09T16:03:54.760Z,146.07
2022-12-09T16:06:32.471Z,139.80
2022-12-09T16:09:00.554Z,139.55
2022-12-09T16:11:43.263Z,149.82
2022-12-09T16:14:11.359Z,142.65
2022-12-09T16:16:45.628Z,155.75
2022-12-09T16:19:40.843Z,155.55
2022-12-09T16:22:11.300Z,147.48
2022-12-09T16:27:37.555Z,133.23
2022-12-09T16:30:22.247Z,138.65
2022-12-09T16:32:57.007Z,121.80
2022-12-09T16:35:26.242Z,133.43
2022-12-09T16:37:56.936Z,145.93
2022-12-09T16:40:24.487Z,129.02
2022-12-09T16:42:54.377Z,146.70
2022-12-09T16:45:37.028Z,133.70
2022-12-09T16:50:36.397Z,147.07
2022-12-09T16:53:06.668Z,159.13
2022-12-09T16:55:34.029Z,162.32
2022-12-09T16:58:01.813Z,168.00
2022-12-09T17:00:29.234Z,159.40
2022-12-09T17:03:07.021Z,164.57
2022-12-09T17:05:34.604Z,171.23
2022-12-09T17:08:02.521Z,164.65
2022-12-09T17:10:29.893Z,163.23
2022-12-09T17:12:57.727Z,155.90
2022-12-09T17:15:25.147Z,158.30
2022-12-09T17:17:52.867Z,154.18
2022-12-09T17:20:20.482Z,158.05
2022-12-09T17:22:48.566Z,156.20
2022-12-09T17:25:16.166Z,140.10
2022-12-09T17:27:43.850Z,153.23
2022-12-09T17:30:12.402Z,145.90
2022-12-09T17:32:40.109Z,155.98
2022-12-09T17:35:12.344Z,148.77
2022-12-09T17:37:40.719Z,142.27
2022-12-09T17:40:08.925Z,151.75
2022-12-09T17:42:36.999Z,146.52
2022-12-09T17:45:05.565Z,162.18
2022-12-09T17:47:33.765Z,157.07
2022-12-09T17:50:01.360Z,155.50
2022-12-09T17:52:29.077Z,142.68
2022-12-09T17:54:56.532Z,156.60
2022-12-09T17:57:24.110Z,157.43
2022-12-09T17:59:51.638Z,143.55
2022-12-09T18:02:19.627Z,144.85
2022-12-09T18:04:47.511Z,143.20
2022-12-09T18:07:15.222Z,151.25
2022-12-09T18:09:42.645Z,147.60
2022-12-09T18:12:10.188Z,153.80
2022-12-09T18:14:37.495Z,156.35
2022-12-09T18:17:05.565Z,149.43
2022-12-09T18:19:35.542Z,150.20
2022-12-09T18:22:04.605Z,143.88
2022-12-09T18:24:32.821Z,161.20
2022-12-09T18:27:04.648Z,149.40
2022-12-09T18:29:32.887Z,149.95
2022-12-09T18:32:01.128Z,148.27
2022-12-09T18:34:29.045Z,150.45
2022-12-09T18:36:57.401Z,146.98
2022-12-09T18:39:25.294Z,155.65
2022-12-09T18:41:54.751Z,137.65
2022-12-09T18:44:22.695Z,154.40
2022-12-09T18:46:51.875Z,138.05
2022-12-09T18:49:24.031Z,139.80
2022-12-09T18:51:53.432Z,141.47
2022-12-09T18:54:28.053Z,150.95
2022-12-09T18:56:56.851Z,139.48
2022-12-09T18:59:27.739Z,153.52
2022-12-09T19:01:56.393Z,141.30
2022-12-09T19:04:29.105Z,152.73
2022-12-09T19:07:00.552Z,157.88
2022-12-09T19:09:32.436Z,155.38
2022-12-09T19:12:23.071Z,147.32
2022-12-09T19:14:51.063Z,150.73
2022-12-09T19:17:20.408Z,136.18
2022-12-09T19:19:49.667Z,149.23
2022-12-09T19:22:18.303Z,129.00
2022-12-09T19:24:47.022Z,127.63
2022-12-09T19:27:15.667Z,138.27
2022-12-09T19:29:43.649Z,129.45
2022-12-09T19:32:36.332Z,139.23
2022-12-09T19:35:00.499Z,150.07
2022-12-09T19:37:29.163Z,154.82
2022-12-09T19:39:57.158Z,155.65
2022-12-09T19:42:25.712Z,145.20
2022-12-09T19:45:01.489Z,151.77
2022-12-09T19:48:14.166Z,147.52
2022-12-09T19:50:42.282Z,143.55
2022-12-09T19:53:10.657Z,146.63
2022-12-09T19:55:39.375Z,142.05
2022-12-09T19:58:09.200Z,156.00
2022-12-09T20:00:41.446Z,149.55
2022-12-09T20:03:10.632Z,141.48
2022-12-09T20:05:48.161Z,145.50
2022-12-09T20:08:16.395Z,91.40
2022-12-09T20:10:48.593Z,136.95
2022-12-09T20:13:17.320Z,128.25
2022-12-09T20:15:45.893Z,128.30
2022-12-09T20:18:14.729Z,128.80
2022-12-09T20:20:48.682Z,128.68
2022-12-09T20:23:16.978Z,129.00
2022-12-09T20:25:45.642Z,130.45
2022-12-09T20:28:13.753Z,135.35
2022-12-09T20:30:42.672Z,120.30
2022-12-09T20:33:11.031Z,122.05
2022-12-09T20:35:39.634Z,130.73
2022-12-09T20:38:08.449Z,127.68
2022-12-09T20:40:40.639Z,127.78
2022-12-09T20:43:09.101Z,110.30
2022-12-09T20:45:39.256Z,112.85
2022-12-09T20:48:07.639Z,125.93
2022-12-09T20:50:39.453Z,117.20
2022-12-09T20:53:07.941Z,110.80
2022-12-09T20:55:36.675Z,117.18
2022-12-09T20:58:04.722Z,116.15
2022-12-09T21:00:33.170Z,116.20
2022-12-09T21:03:01.108Z,116.57
2022-12-09T21:05:29.433Z,119.55
2022-12-09T21:07:57.444Z,120.07
2022-12-09T21:10:25.976Z,122.28
2022-12-09T21:12:53.806Z,112.47
2022-12-09T21:15:24.071Z,110.80
2022-12-09T21:17:52.167Z,116.13
2022-12-09T21:20:20.948Z,117.28
2022-12-09T21:23:10.587Z,118.78
2022-12-09T21:25:38.165Z,125.57
2022-12-09T21:28:06.575Z,117.07
2022-12-09T21:30:35.158Z,127.68
2022-12-09T21:33:03.330Z,120.78
2022-12-09T21:35:31.653Z,120.03
2022-12-09T21:38:00.708Z,111.93
2022-12-09T21:40:29.432Z,109.10
2022-12-09T21:42:57.793Z,118.75
2022-12-09T21:45:27.041Z,121.03
2022-12-09T21:47:55.617Z,112.03
2022-12-09T21:50:24.300Z,116.40
2022-12-09T21:52:53.116Z,117.90
2022-12-09T21:55:21.745Z,118.65
2022-12-09T21:57:49.641Z,114.40
2022-12-09T22:00:18.377Z,114.43
2022-12-09T22:02:47.372Z,117.03
2022-12-09T22:05:16.598Z,111.90
2022-12-09T22:07:44.430Z,107.72
2022-12-09T22:10:13.148Z,121.88
2022-12-09T22:12:41.152Z,116.55
2022-12-09T22:15:11.540Z,118.03
2022-12-09T22:17:39.475Z,122.43
2022-12-09T22:22:57.699Z,119.53
2022-12-09T22:25:26.170Z,113.07
2022-12-09T22:27:54.201Z,120.43
2022-12-09T22:30:22.738Z,115.18
2022-12-09T22:32:51.143Z,123.72
2022-12-09T22:35:19.259Z,126.57
2022-12-09T22:37:47.074Z,130.98
2022-12-09T22:40:15.583Z,125.35
2022-12-09T22:42:43.509Z,129.35
2022-12-09T22:45:12.030Z,132.82
2022-12-09T22:47:39.947Z,127.47
2022-12-09T22:50:09.718Z,126.32
2022-12-09T22:52:38.082Z,136.80
2022-12-09T22:55:06.846Z,121.15
2022-12-09T22:57:34.510Z,131.07
2022-12-09T23:00:03.080Z,130.57
2022-12-09T23:02:30.936Z,130.10
2022-12-09T23:04:59.495Z,135.20
2022-12-09T23:07:27.218Z,133.70
2022-12-09T23:09:55.783Z,131.63
2022-12-09T23:12:23.502Z,128.45
2022-12-09T23:14:52.432Z,122.78
2022-12-09T23:17:20.316Z,131.82
2022-12-09T23:19:48.738Z,138.95
2022-12-09T23:22:16.517Z,133.75
2022-12-09T23:24:44.512Z,123.35
2022-12-09T23:27:12.983Z,137.35
2022-12-09T23:29:40.950Z,145.65
2022-12-09T23:32:09.190Z,147.43
2022-12-09T23:34:37.393Z,139.65
2022-12-09T23:37:05.149Z,134.73
2022-12-09T23:39:33.559Z,136.15
2022-12-09T23:42:01.348Z,139.02
2022-12-09T23:44:29.670Z,126.55
2022-12-09T23:46:57.442Z,143.13
2022-12-09T23:49:26.041Z,135.40
2022-12-09T23:51:53.944Z,130.93
2022-12-09T23:54:23.915Z,133.63
2022-12-09T23:56:51.934Z,132.43
2022-12-09T23:59:21.658Z,136.85
